Pacific Breeze — JD3088 — position and weather

sailwx.info

Track history (hours):
 
Tides and Currents Weather Stations Pressure Air Temp Water Temp Dewpoint Dewpoint Depression Visibility Wind Speed Wind Dir Waves Ship Positions

Pacific Breeze

Last reported at 2018-Feb-23 14:05 UTC. Time now 2018-Feb-24 06:10 UTC.
Position N 41°26' E 141°32'.

Length 115 m; draft 5.8 m.

Type: Cargo ship. MMSI: 431000560.

Date/timePositionNaut miles runAvg speedWind from/ knotsBaromVisibWave heightAir tempDewpointWater temp
2018-Feb-23 14:05N 41°26' E 141°32'1 9.6
2018-Feb-23 13:58N 41°27' E 141°31'610.6
2018-Feb-23 13:25N 41°31' E 141°24'510.9
2018-Feb-23 12:56N 41°31' E 141°18'511.2
2018-Feb-23 12:30N 41°32' E 141°11'511.0
2018-Feb-23 12:00N 41°33' E 141°04'612.0
2018-Feb-23 11:30N 41°36' E 140°57'611.4
2018-Feb-23 11:00N 41°38' E 140°50'5 9.5
2018-Feb-23 10:30N 41°40' E 140°44'4 8.6
2018-Feb-23 10:00N 41°44' E 140°41'4 8.7
2018-Feb-23 09:30N 41°48' E 140°39'0 0.7
2018-Feb-23 08:58N 41°48' E 140°39'0 0.0
2018-Feb-23 08:28N 41°48' E 140°39'0 0.0
2018-Feb-23 07:49N 41°48' E 140°39'0 0.0
2018-Feb-23 07:25N 41°48' E 140°39'0 0.0
2018-Feb-23 06:55N 41°48' E 140°39'0 0.0
2018-Feb-23 06:28N 41°48' E 140°39'0 0.0
2018-Feb-23 05:55N 41°48' E 140°39'0 0.0
2018-Feb-23 04:52N 41°48' E 140°39'0 0.0
2018-Feb-23 04:28N 41°48' E 140°39'0 0.0
2018-Feb-23 03:58N 41°48' E 140°39'0 0.0
2018-Feb-23 03:28N 41°48' E 140°39'0 0.0
2018-Feb-23 02:58N 41°48' E 140°39'0 0.0
2018-Feb-23 02:28N 41°48' E 140°39'0 0.0
2018-Feb-23 01:58N 41°48' E 140°39'1 2.4
2018-Feb-23 01:30N 41°48' E 140°40'2 3.3
2018-Feb-23 01:00N 41°46' E 140°40'0 0.2
2018-Feb-23 00:29N 41°46' E 140°40'0 0.0
2018-Feb-22 23:59N 41°46' E 140°40'0 0.0
2018-Feb-22 23:23N 41°46' E 140°40'0 0.0
2018-Feb-22 22:59N 41°46' E 140°40'0 0.0
2018-Feb-22 22:23N 41°46' E 140°40'0 0.0
2018-Feb-22 21:56N 41°46' E 140°40'0 0.0
2018-Feb-22 21:29N 41°46' E 140°40'0 0.0
2018-Feb-22 20:59N 41°46' E 140°40'0 0.0
2018-Feb-22 20:23N 41°46' E 140°40'0 0.0
2018-Feb-22 19:59N 41°46' E 140°40'0 0.0
2018-Feb-22 19:23N 41°46' E 140°40'0 0.0
2018-Feb-22 18:59N 41°46' E 140°40'0 0.0
2018-Feb-22 18:29N 41°46' E 140°40'0 0.0
2018-Feb-22 17:59N 41°46' E 140°40'0 0.0
2018-Feb-22 17:29N 41°46' E 140°40'0 0.0
2018-Feb-22 16:59N 41°46' E 140°40'0 0.0
2018-Feb-22 16:26N 41°46' E 140°40'0 0.1
2018-Feb-22 15:59N 41°46' E 140°40'0 0.1
2018-Feb-22 15:29N 41°46' E 140°40'0 0.0
2018-Feb-22 14:56N 41°46' E 140°40'0 0.0
2018-Feb-22 14:29N 41°46' E 140°40'0 0.0
2018-Feb-22 13:59N 41°46' E 140°40'0 0.1
2018-Feb-22 13:29N 41°46' E 140°40'0 0.1
2018-Feb-22 12:59N 41°46' E 140°40'0 0.0
2018-Feb-22 12:29N 41°46' E 140°40'0 0.0
2018-Feb-22 11:56N 41°46' E 140°40'0 0.0
2018-Feb-22 11:29N 41°46' E 140°40'0 0.1
2018-Feb-22 10:59N 41°46' E 140°40'0 0.0
2018-Feb-22 10:29N 41°46' E 140°40'0 0.0
2018-Feb-22 09:56N 41°46' E 140°40'0 0.0
2018-Feb-22 09:29N 41°46' E 140°40'0 0.0
2018-Feb-22 08:59N 41°46' E 140°40'0 0.0
2018-Feb-22 08:29N 41°46' E 140°40'0 0.0
2018-Feb-22 07:56N 41°46' E 140°40'0 0.0
2018-Feb-22 07:23N 41°46' E 140°40'0 0.0
2018-Feb-22 06:59N 41°46' E 140°40'0 0.0
2018-Feb-22 06:29N 41°46' E 140°40'0 0.0
2018-Feb-22 05:59N 41°46' E 140°40'0 0.0
2018-Feb-22 05:29N 41°46' E 140°40'0 0.1
2018-Feb-22 04:59N 41°46' E 140°40'0 0.1
2018-Feb-22 04:29N 41°46' E 140°40'0 0.0
2018-Feb-22 03:59N 41°46' E 140°40'0 0.0
2018-Feb-22 03:29N 41°46' E 140°40'0 0.1
2018-Feb-22 02:59N 41°46' E 140°40'0 0.0
2018-Feb-22 02:29N 41°46' E 140°40'0 0.2
2018-Feb-22 01:59N 41°46' E 140°40'0 0.1
2018-Feb-22 01:29N 41°46' E 140°40'0 0.1
2018-Feb-22 00:59N 41°46' E 140°40'0 0.1
2018-Feb-22 00:20N 41°46' E 140°40'0 0.0
2018-Feb-21 23:56N 41°46' E 140°40'0 0.1
2018-Feb-21 23:26N 41°46' E 140°40'0 0.1
2018-Feb-21 22:56N 41°46' E 140°40'0 0.2
2018-Feb-21 22:29N 41°46' E 140°40'0 0.0
2018-Feb-21 21:59N 41°46' E 140°40'0 0.1
2018-Feb-21 21:26N 41°46' E 140°40'0 0.0
2018-Feb-21 20:59N 41°46' E 140°40'0 0.0
2018-Feb-21 20:29N 41°46' E 140°40'0 0.1
2018-Feb-21 19:56N 41°46' E 140°40'0 0.1
2018-Feb-21 19:26N 41°46' E 140°40'0 0.0
2018-Feb-21 18:59N 41°46' E 140°40'0 0.0
2018-Feb-21 18:20N 41°46' E 140°40'0 0.0
2018-Feb-21 17:56N 41°46' E 140°40'0 0.1
2018-Feb-21 17:29N 41°46' E 140°40'0 0.0
2018-Feb-21 16:56N 41°46' E 140°40'0 0.0
2018-Feb-21 16:29N 41°46' E 140°40'0 0.1
2018-Feb-21 15:56N 41°46' E 140°40'0 0.1
2018-Feb-21 15:26N 41°46' E 140°40'0 0.2
2018-Feb-21 14:59N 41°46' E 140°40'0 0.1
2018-Feb-21 14:29N 41°46' E 140°40'0 0.0
2018-Feb-21 13:59N 41°46' E 140°40'0 0.2
2018-Feb-21 13:29N 41°46' E 140°40'0 0.0
2018-Feb-21 12:53N 41°46' E 140°40'0 0.1
2018-Feb-21 12:29N 41°46' E 140°40'0 0.1
2018-Feb-21 11:59N 41°46' E 140°40'0 0.0
2018-Feb-21 11:17N 41°46' E 140°40'0 0.1
2018-Feb-21 10:50N 41°46' E 140°40'0 0.1
2018-Feb-21 10:29N 41°46' E 140°40'0 0.0
2018-Feb-21 09:59N 41°46' E 140°40'0 0.0
2018-Feb-21 09:29N 41°46' E 140°40'0 0.0
2018-Feb-21 08:59N 41°46' E 140°40'0 0.1
2018-Feb-21 08:29N 41°46' E 140°40'0 0.0
2018-Feb-21 07:56N 41°46' E 140°40'0 0.0
2018-Feb-21 07:11N 41°46' E 140°40'0 0.0
2018-Feb-21 06:59N 41°46' E 140°40'0 0.0
2018-Feb-21 06:29N 41°46' E 140°40'0 0.0
2018-Feb-21 05:59N 41°46' E 140°40'0 0.0
2018-Feb-21 05:29N 41°46' E 140°40'0 0.0
2018-Feb-21 04:59N 41°46' E 140°40'0 0.0
2018-Feb-21 04:29N 41°46' E 140°40'0 0.0
2018-Feb-21 03:38N 41°46' E 140°40'0 0.1
2018-Feb-21 03:29N 41°46' E 140°40'0 0.0
2018-Feb-21 02:59N 41°46' E 140°40'0 0.0
2018-Feb-21 02:29N 41°46' E 140°40'0 0.0
2018-Feb-21 01:56N 41°46' E 140°40'0 0.1
2018-Feb-21 01:29N 41°46' E 140°40'0 0.1
2018-Feb-21 00:59N 41°46' E 140°40'0 0.0
2018-Feb-21 00:29N 41°46' E 140°40'0 0.0
2018-Feb-20 23:53N 41°46' E 140°40'0 0.1
2018-Feb-20 23:29N 41°46' E 140°40'0 0.1
2018-Feb-20 22:59N 41°46' E 140°40'0 0.0
2018-Feb-20 22:23N 41°46' E 140°40'0 0.0
2018-Feb-20 21:59N 41°46' E 140°40'0 0.0
2018-Feb-20 21:29N 41°46' E 140°40'0 0.0
2018-Feb-20 20:59N 41°46' E 140°40'0 0.0
2018-Feb-20 20:29N 41°46' E 140°40'0 0.0
2018-Feb-20 19:59N 41°46' E 140°40'0 0.0
2018-Feb-20 19:29N 41°46' E 140°40'2 3.4
2018-Feb-20 19:01N 41°44' E 140°40'612.4
2018-Feb-20 18:30N 41°38' E 140°37'713.4
2018-Feb-20 18:00N 41°33' E 140°32'713.3
2018-Feb-20 17:30N 41°27' E 140°27'714.0
2018-Feb-20 17:00N 41°21' E 140°22'2312.7
2018-Feb-20 15:11N 41°01' E 140°06'212.8
2018-Feb-20 15:00N 40°59' E 140°05'712.7
2018-Feb-20 14:28N 40°54' E 140°00'712.5
2018-Feb-20 13:54N 40°47' E 139°56'  
Track history (hours):
 
Tides and Currents Weather Stations Pressure Air Temp Water Temp Dewpoint Dewpoint Depression Visibility Wind Speed Wind Dir Waves Ship Positions

Pacific Breeze

Last reported at 2018-Feb-23 14:05 UTC. Time now 2018-Feb-24 06:10 UTC.
Position N 41°26' E 141°32'.

Length 115 m; draft 5.8 m.

Type: Cargo ship. MMSI: 431000560.

Date/timePositionNaut miles runAvg speedWind from/ knotsBaromVisibWave heightAir tempDewpointWater temp
2018-Feb-23 14:05N 41°26' E 141°32'1 9.6
2018-Feb-23 13:58N 41°27' E 141°31'610.6
2018-Feb-23 13:25N 41°31' E 141°24'510.9
2018-Feb-23 12:56N 41°31' E 141°18'511.2
2018-Feb-23 12:30N 41°32' E 141°11'511.0
2018-Feb-23 12:00N 41°33' E 141°04'612.0
2018-Feb-23 11:30N 41°36' E 140°57'611.4
2018-Feb-23 11:00N 41°38' E 140°50'5 9.5
2018-Feb-23 10:30N 41°40' E 140°44'4 8.6
2018-Feb-23 10:00N 41°44' E 140°41'4 8.7
2018-Feb-23 09:30N 41°48' E 140°39'0 0.7
2018-Feb-23 08:58N 41°48' E 140°39'0 0.0
2018-Feb-23 08:28N 41°48' E 140°39'0 0.0
2018-Feb-23 07:49N 41°48' E 140°39'0 0.0
2018-Feb-23 07:25N 41°48' E 140°39'0 0.0
2018-Feb-23 06:55N 41°48' E 140°39'0 0.0
2018-Feb-23 06:28N 41°48' E 140°39'0 0.0
2018-Feb-23 05:55N 41°48' E 140°39'0 0.0
2018-Feb-23 04:52N 41°48' E 140°39'0 0.0
2018-Feb-23 04:28N 41°48' E 140°39'0 0.0
2018-Feb-23 03:58N 41°48' E 140°39'0 0.0
2018-Feb-23 03:28N 41°48' E 140°39'0 0.0
2018-Feb-23 02:58N 41°48' E 140°39'0 0.0
2018-Feb-23 02:28N 41°48' E 140°39'0 0.0
2018-Feb-23 01:58N 41°48' E 140°39'1 2.4
2018-Feb-23 01:30N 41°48' E 140°40'2 3.3
2018-Feb-23 01:00N 41°46' E 140°40'0 0.2
2018-Feb-23 00:29N 41°46' E 140°40'0 0.0
2018-Feb-22 23:59N 41°46' E 140°40'0 0.0
2018-Feb-22 23:23N 41°46' E 140°40'0 0.0
2018-Feb-22 22:59N 41°46' E 140°40'0 0.0
2018-Feb-22 22:23N 41°46' E 140°40'0 0.0
2018-Feb-22 21:56N 41°46' E 140°40'0 0.0
2018-Feb-22 21:29N 41°46' E 140°40'0 0.0
2018-Feb-22 20:59N 41°46' E 140°40'0 0.0
2018-Feb-22 20:23N 41°46' E 140°40'0 0.0
2018-Feb-22 19:59N 41°46' E 140°40'0 0.0
2018-Feb-22 19:23N 41°46' E 140°40'0 0.0
2018-Feb-22 18:59N 41°46' E 140°40'0 0.0
2018-Feb-22 18:29N 41°46' E 140°40'0 0.0
2018-Feb-22 17:59N 41°46' E 140°40'0 0.0
2018-Feb-22 17:29N 41°46' E 140°40'0 0.0
2018-Feb-22 16:59N 41°46' E 140°40'0 0.0
2018-Feb-22 16:26N 41°46' E 140°40'0 0.1
2018-Feb-22 15:59N 41°46' E 140°40'0 0.1
2018-Feb-22 15:29N 41°46' E 140°40'0 0.0
2018-Feb-22 14:56N 41°46' E 140°40'0 0.0
2018-Feb-22 14:29N 41°46' E 140°40'0 0.0
2018-Feb-22 13:59N 41°46' E 140°40'0 0.1
2018-Feb-22 13:29N 41°46' E 140°40'0 0.1
2018-Feb-22 12:59N 41°46' E 140°40'0 0.0
2018-Feb-22 12:29N 41°46' E 140°40'0 0.0
2018-Feb-22 11:56N 41°46' E 140°40'0 0.0
2018-Feb-22 11:29N 41°46' E 140°40'0 0.1
2018-Feb-22 10:59N 41°46' E 140°40'0 0.0
2018-Feb-22 10:29N 41°46' E 140°40'0 0.0
2018-Feb-22 09:56N 41°46' E 140°40'0 0.0
2018-Feb-22 09:29N 41°46' E 140°40'0 0.0
2018-Feb-22 08:59N 41°46' E 140°40'0 0.0
2018-Feb-22 08:29N 41°46' E 140°40'0 0.0
2018-Feb-22 07:56N 41°46' E 140°40'0 0.0
2018-Feb-22 07:23N 41°46' E 140°40'0 0.0
2018-Feb-22 06:59N 41°46' E 140°40'0 0.0
2018-Feb-22 06:29N 41°46' E 140°40'0 0.0
2018-Feb-22 05:59N 41°46' E 140°40'0 0.0
2018-Feb-22 05:29N 41°46' E 140°40'0 0.1
2018-Feb-22 04:59N 41°46' E 140°40'0 0.1
2018-Feb-22 04:29N 41°46' E 140°40'0 0.0
2018-Feb-22 03:59N 41°46' E 140°40'0 0.0
2018-Feb-22 03:29N 41°46' E 140°40'0 0.1
2018-Feb-22 02:59N 41°46' E 140°40'0 0.0
2018-Feb-22 02:29N 41°46' E 140°40'0 0.2
2018-Feb-22 01:59N 41°46' E 140°40'0 0.1
2018-Feb-22 01:29N 41°46' E 140°40'0 0.1
2018-Feb-22 00:59N 41°46' E 140°40'0 0.1
2018-Feb-22 00:20N 41°46' E 140°40'0 0.0
2018-Feb-21 23:56N 41°46' E 140°40'0 0.1
2018-Feb-21 23:26N 41°46' E 140°40'0 0.1
2018-Feb-21 22:56N 41°46' E 140°40'0 0.2
2018-Feb-21 22:29N 41°46' E 140°40'0 0.0
2018-Feb-21 21:59N 41°46' E 140°40'0 0.1
2018-Feb-21 21:26N 41°46' E 140°40'0 0.0
2018-Feb-21 20:59N 41°46' E 140°40'0 0.0
2018-Feb-21 20:29N 41°46' E 140°40'0 0.1
2018-Feb-21 19:56N 41°46' E 140°40'0 0.1
2018-Feb-21 19:26N 41°46' E 140°40'0 0.0
2018-Feb-21 18:59N 41°46' E 140°40'0 0.0
2018-Feb-21 18:20N 41°46' E 140°40'0 0.0
2018-Feb-21 17:56N 41°46' E 140°40'0 0.1
2018-Feb-21 17:29N 41°46' E 140°40'0 0.0
2018-Feb-21 16:56N 41°46' E 140°40'0 0.0
2018-Feb-21 16:29N 41°46' E 140°40'0 0.1
2018-Feb-21 15:56N 41°46' E 140°40'0 0.1
2018-Feb-21 15:26N 41°46' E 140°40'0 0.2
2018-Feb-21 14:59N 41°46' E 140°40'0 0.1
2018-Feb-21 14:29N 41°46' E 140°40'0 0.0
2018-Feb-21 13:59N 41°46' E 140°40'0 0.2
2018-Feb-21 13:29N 41°46' E 140°40'0 0.0
2018-Feb-21 12:53N 41°46' E 140°40'0 0.1
2018-Feb-21 12:29N 41°46' E 140°40'0 0.1
2018-Feb-21 11:59N 41°46' E 140°40'0 0.0
2018-Feb-21 11:17N 41°46' E 140°40'0 0.1
2018-Feb-21 10:50N 41°46' E 140°40'0 0.1
2018-Feb-21 10:29N 41°46' E 140°40'0 0.0
2018-Feb-21 09:59N 41°46' E 140°40'0 0.0
2018-Feb-21 09:29N 41°46' E 140°40'0 0.0
2018-Feb-21 08:59N 41°46' E 140°40'0 0.1
2018-Feb-21 08:29N 41°46' E 140°40'0 0.0
2018-Feb-21 07:56N 41°46' E 140°40'0 0.0
2018-Feb-21 07:11N 41°46' E 140°40'0 0.0
2018-Feb-21 06:59N 41°46' E 140°40'0 0.0
2018-Feb-21 06:29N 41°46' E 140°40'0 0.0
2018-Feb-21 05:59N 41°46' E 140°40'0 0.0
2018-Feb-21 05:29N 41°46' E 140°40'0 0.0
2018-Feb-21 04:59N 41°46' E 140°40'0 0.0
2018-Feb-21 04:29N 41°46' E 140°40'0 0.0
2018-Feb-21 03:38N 41°46' E 140°40'0 0.1
2018-Feb-21 03:29N 41°46' E 140°40'0 0.0
2018-Feb-21 02:59N 41°46' E 140°40'0 0.0
2018-Feb-21 02:29N 41°46' E 140°40'0 0.0
2018-Feb-21 01:56N 41°46' E 140°40'0 0.1
2018-Feb-21 01:29N 41°46' E 140°40'0 0.1
2018-Feb-21 00:59N 41°46' E 140°40'0 0.0
2018-Feb-21 00:29N 41°46' E 140°40'0 0.0
2018-Feb-20 23:53N 41°46' E 140°40'0 0.1
2018-Feb-20 23:29N 41°46' E 140°40'0 0.1
2018-Feb-20 22:59N 41°46' E 140°40'0 0.0
2018-Feb-20 22:23N 41°46' E 140°40'0 0.0
2018-Feb-20 21:59N 41°46' E 140°40'0 0.0
2018-Feb-20 21:29N 41°46' E 140°40'0 0.0
2018-Feb-20 20:59N 41°46' E 140°40'0 0.0
2018-Feb-20 20:29N 41°46' E 140°40'0 0.0
2018-Feb-20 19:59N 41°46' E 140°40'0 0.0
2018-Feb-20 19:29N 41°46' E 140°40'2 3.4
2018-Feb-20 19:01N 41°44' E 140°40'612.4
2018-Feb-20 18:30N 41°38' E 140°37'713.4
2018-Feb-20 18:00N 41°33' E 140°32'713.3
2018-Feb-20 17:30N 41°27' E 140°27'714.0
2018-Feb-20 17:00N 41°21' E 140°22'2312.7
2018-Feb-20 15:11N 41°01' E 140°06'212.8
2018-Feb-20 15:00N 40°59' E 140°05'712.7
2018-Feb-20 14:28N 40°54' E 140°00'712.5
2018-Feb-20 13:54N 40°47' E 139°56'  

Dump ship's entire track history